Time;durP1;ratioP1;P1;durP2;ratioP2;P2;SDS_P1;SDS_P2;PMS_P1;PMS_P2;Temp;Humidity;BMP_temperature;BMP_pressure;BME280_temperature;BME280_humidity;BME280_pressure;Samples;Min_cycle;Max_cycle;Signal;HPM_P1;HPM_P2
2021/11/26 00:02:27;;;;;;;1.83;1.50;;;20.30;43.80;;;24.00;29.34;100049.34;5095401;28;20040;-39
2021/11/26 00:04:54;;;;;;;1.50;1.40;;;20.30;43.70;;;24.00;29.22;100052.84;5095217;28;20554;-40
2021/11/26 00:07:21;;;;;;;1.80;1.50;;;20.30;43.80;;;23.98;29.32;100057.47;5095142;28;20055;-39
2021/11/26 00:09:50;;;;;;;1.98;1.67;;;20.30;43.90;;;23.98;29.19;100049.47;5095442;28;20074;-39
2021/11/26 00:12:16;;;;;;;1.85;1.63;;;20.30;43.80;;;24.00;29.19;100055.50;5095204;28;20040;-39
2021/11/26 00:17:19;;;;;;;1.50;1.40;;;20.30;43.90;;;23.98;29.53;100041.47;5094945;28;20036;-42
2021/11/26 00:19:47;;;;;;;2.40;1.70;;;20.30;43.90;;;23.99;29.43;100037.81;5095064;28;20090;-41
2021/11/26 00:22:14;;;;;;;2.03;1.60;;;20.30;43.90;;;23.97;29.34;100036.25;5095039;28;20055;-42
2021/11/26 00:24:40;;;;;;;1.48;1.38;;;20.20;43.80;;;23.98;29.25;100038.78;5094845;28;20048;-42
2021/11/26 00:27:06;;;;;;;2.20;1.55;;;20.30;43.80;;;23.96;29.30;100032.75;5095362;28;20142;-39
2021/11/26 00:29:33;;;;;;;1.50;1.35;;;20.30;43.70;;;23.94;29.33;100025.84;5091409;28;20369;-39
2021/11/26 00:31:59;;;;;;;2.05;1.42;;;20.30;43.70;;;23.96;29.39;100037.25;5094940;28;20059;-39
2021/11/26 00:34:25;;;;;;;2.03;1.80;;;20.30;43.70;;;23.98;29.30;100041.47;5095075;28;20056;-39
2021/11/26 00:36:51;;;;;;;1.90;1.50;;;20.20;43.50;;;23.96;29.36;100029.25;5095197;28;20048;-39
2021/11/26 00:39:17;;;;;;;1.92;1.65;;;20.30;43.50;;;23.99;29.30;100026.28;5095212;28;20130;-39
2021/11/26 00:41:43;;;;;;;1.92;1.58;;;20.30;43.50;;;23.97;29.17;100030.91;5094630;28;20048;-41
2021/11/26 00:44:09;;;;;;;1.60;1.48;;;20.30;43.50;;;23.96;29.12;100022.06;5094681;28;20051;-44
2021/11/26 00:46:35;;;;;;;2.65;1.60;;;20.30;43.50;;;23.97;29.25;100017.56;5094704;28;20052;-40
2021/11/26 00:49:02;;;;;;;2.15;1.50;;;20.30;43.60;;;23.97;29.30;100017.56;5094837;28;20522;-40
2021/11/26 00:51:30;;;;;;;1.70;1.50;;;20.30;43.50;;;23.97;29.24;100013.09;5094597;28;20075;-41
2021/11/26 00:54:00;;;;;;;3.25;1.73;;;20.30;43.50;;;23.99;29.25;100003.09;5094793;28;20090;-39
2021/11/26 00:56:26;;;;;;;2.88;1.40;;;20.30;43.60;;;23.96;29.11;99987.34;5094219;28;20051;-39
2021/11/26 00:58:52;;;;;;;1.58;1.45;;;20.30;43.60;;;23.99;29.33;99988.88;5094801;28;20147;-39
2021/11/26 01:01:18;;;;;;;1.55;1.35;;;20.30;43.60;;;23.99;29.09;99991.56;5094476;28;20475;-42
2021/11/26 01:03:44;;;;;;;1.95;1.65;;;20.30;43.60;;;23.99;29.27;99983.56;5094373;28;20079;-40
2021/11/26 01:06:10;;;;;;;1.52;1.20;;;20.30;43.60;;;23.98;29.22;99979.22;5094849;28;20144;-39
2021/11/26 01:08:37;;;;;;;2.08;1.60;;;20.30;43.60;;;23.99;29.38;99978.22;5094351;28;20048;-39
2021/11/26 01:11:03;;;;;;;1.55;1.42;;;20.30;43.60;;;23.95;29.26;99971.47;5094257;28;20075;-42
2021/11/26 01:13:29;;;;;;;1.63;1.52;;;20.30;43.60;;;23.97;29.39;99970.38;5094338;28;20055;-39
2021/11/26 01:15:55;;;;;;;1.52;1.23;;;20.30;43.60;;;23.99;29.11;99972.88;5094006;28;20097;-39
2021/11/26 01:18:21;;;;;;;1.95;1.67;;;20.30;43.60;;;23.95;29.30;99961.63;5094327;28;20124;-40
2021/11/26 01:20:48;;;;;;;2.03;1.75;;;20.30;43.60;;;23.97;29.21;99965.03;5093759;28;20506;-39
2021/11/26 01:23:14;;;;;;;2.20;1.63;;;20.30;43.60;;;23.95;29.29;99950.94;5094033;28;20120;-39
2021/11/26 01:25:41;;;;;;;1.80;1.45;;;20.30;43.50;;;24.00;29.28;99954.03;5093992;28;20047;-42
2021/11/26 01:28:08;;;;;;;1.98;1.52;;;20.30;43.60;;;24.00;29.12;99953.22;5093997;28;20044;-39
2021/11/26 01:30:39;;;;;;;2.03;1.30;;;20.30;43.60;;;24.00;29.25;99953.22;5093749;28;20048;-40
2021/11/26 01:33:08;;;;;;;;;;;20.30;43.60;;;24.13;28.89;99955.63;5094705;28;20495;-40
2021/11/26 01:35:36;;;;;;;2.05;1.65;;;20.30;43.60;;;24.04;29.16;99951.97;5093853;28;19916;-39
2021/11/26 01:38:07;;;;;;;2.22;1.30;;;20.30;43.60;;;24.03;29.29;99953.78;5094123;28;20442;-41
2021/11/26 01:40:36;;;;;;;1.50;1.40;;;20.40;43.60;;;24.00;29.19;99945.19;5093790;28;20054;-39
2021/11/26 01:43:05;;;;;;;1.83;1.65;;;20.30;43.60;;;24.00;29.31;99940.69;5074277;28;20084;-41
2021/11/26 01:45:31;;;;;;;1.80;1.40;;;20.30;43.60;;;23.98;29.24;99928.47;5093650;28;20177;-40
2021/11/26 01:47:57;;;;;;;1.40;1.30;;;20.30;43.60;;;24.01;29.14;99933.56;5093655;28;20130;-41
2021/11/26 01:50:23;;;;;;;1.63;1.52;;;20.30;43.60;;;23.97;29.18;99926.78;5093924;28;20494;-39
2021/11/26 01:52:51;;;;;;;2.30;1.20;;;20.30;43.60;;;23.98;29.19;99926.66;5075566;28;20403;-41
2021/11/26 01:55:18;;;;;;;2.67;1.60;;;20.30;43.60;;;24.01;29.37;99925.53;5075485;28;20051;-40
2021/11/26 01:57:46;;;;;;;1.92;1.50;;;20.30;43.60;;;24.00;29.28;99914.00;5093438;28;20048;-42
2021/11/26 02:00:18;;;;;;;2.45;1.63;;;20.40;43.60;;;23.98;29.44;99909.78;5093757;28;20504;-41
2021/11/26 02:02:44;;;;;;;1.70;1.48;;;20.40;43.60;;;23.99;29.38;99903.44;5093482;28;20078;-39
2021/11/26 02:05:10;;;;;;;1.55;1.15;;;20.40;43.60;;;24.03;29.08;99907.53;5093356;28;20043;-39
2021/11/26 02:07:36;;;;;;;2.05;1.52;;;20.30;43.60;;;24.02;29.09;99898.69;5092553;28;20055;-39
2021/11/26 02:10:04;;;;;;;1.45;1.25;;;20.30;43.60;;;23.99;29.20;99892.75;5093663;28;20494;-41
2021/11/26 02:12:31;;;;;;;1.25;1.15;;;20.30;43.60;;;24.02;29.20;99895.16;5093333;28;20048;-39
2021/11/26 02:14:58;;;;;;;1.60;1.48;;;20.40;43.60;;;24.00;29.16;99889.97;5093213;28;20051;-39
2021/11/26 02:17:26;;;;;;;1.30;1.20;;;20.30;43.60;;;24.01;29.28;99886.31;5093225;28;20048;-39
2021/11/26 02:19:58;;;;;;;2.05;1.80;;;20.30;43.60;;;24.00;29.12;99878.44;5093277;28;20040;-40
2021/11/26 02:22:26;;;;;;;1.20;1.10;;;20.30;43.60;;;23.99;29.39;99880.28;5093094;28;20044;-39
2021/11/26 02:24:53;;;;;;;1.40;1.30;;;20.30;43.60;;;24.00;29.13;99870.44;5093387;28;20044;-41
2021/11/26 02:27:20;;;;;;;1.77;1.40;;;20.30;43.60;;;23.98;29.33;99873.25;5093150;28;20048;-39
2021/11/26 02:29:54;;;;;;;1.83;1.25;;;20.30;43.60;;;23.98;29.19;99870.56;5093013;28;20044;-42
2021/11/26 02:32:20;;;;;;;1.50;1.40;;;20.40;43.60;;;23.99;29.23;99866.94;5093397;28;20387;-41
2021/11/26 02:34:46;;;;;;;1.38;1.27;;;20.40;43.60;;;24.02;29.31;99869.31;5093024;28;20048;-41
2021/11/26 02:37:12;;;;;;;2.30;1.50;;;20.40;43.60;;;24.00;29.27;99855.25;5093420;28;20044;-41
2021/11/26 02:39:38;;;;;;;1.67;1.48;;;20.40;43.60;;;24.02;29.09;99849.78;5092913;28;20079;-39
2021/11/26 02:42:04;;;;;;;2.53;1.33;;;20.40;43.60;;;24.01;29.18;99848.94;5092902;28;20067;-39
2021/11/26 02:44:29;;;;;;;1.88;1.40;;;20.30;43.60;;;23.98;29.30;99838.53;5092834;28;20396;-41
2021/11/26 02:46:55;;;;;;;1.13;1.02;;;20.30;43.60;;;24.02;29.35;99847.09;5092798;28;20052;-42
2021/11/26 02:49:21;;;;;;;1.55;1.25;;;20.30;43.60;;;23.96;29.20;99827.16;5092789;28;20066;-41
2021/11/26 02:51:47;;;;;;;1.60;1.30;;;20.30;43.70;;;23.98;29.34;99833.19;5093102;28;20055;-42
2021/11/26 02:54:13;;;;;;;1.88;1.60;;;20.30;43.60;;;24.01;29.21;99829.41;5092535;28;20040;-40
2021/11/26 02:56:39;;;;;;;1.50;1.35;;;20.40;43.60;;;23.98;29.17;99830.53;5092991;28;20048;-39
2021/11/26 02:59:04;;;;;;;2.67;1.65;;;20.30;43.60;;;24.02;29.46;99826.59;5092966;28;20040;-41
2021/11/26 03:01:31;;;;;;;1.85;1.40;;;20.40;43.60;;;24.01;29.19;99826.75;5092641;28;20135;-42
2021/11/26 03:03:57;;;;;;;1.27;1.17;;;20.40;43.60;;;24.01;29.29;99824.06;5092553;28;20050;-41
2021/11/26 03:06:23;;;;;;;1.35;1.13;;;20.40;43.60;;;24.03;29.23;99817.59;5092500;28;20052;-39
2021/11/26 03:08:49;;;;;;;1.52;1.35;;;20.40;43.60;;;24.00;29.42;99806.34;5092408;28;20495;-39
2021/11/26 03:11:14;;;;;;;1.65;1.27;;;20.40;43.50;;;24.03;29.07;99814.91;5092504;28;20139;-39
2021/11/26 03:13:42;;;;;;;1.75;1.40;;;20.40;43.50;;;24.07;29.46;99814.66;5092371;28;20059;-40
2021/11/26 03:16:08;;;;;;;1.67;1.17;;;20.40;43.40;;;24.04;29.18;99800.59;5092451;28;20060;-39
2021/11/26 03:18:34;;;;;;;1.40;1.17;;;20.40;43.50;;;24.05;29.32;99796.09;5092171;28;20051;-39
2021/11/26 03:21:00;;;;;;;1.45;1.10;;;20.50;43.40;;;24.09;29.15;99800.19;5095822;28;20058;-39
2021/11/26 03:23:26;;;;;;;0.88;0.88;;;20.50;43.40;;;24.08;29.12;99798.47;5095897;28;20052;-39
2021/11/26 03:25:52;;;;;;;2.22;1.50;;;20.50;43.40;;;24.12;29.08;99793.69;5095631;28;20101;-40
2021/11/26 03:28:18;;;;;;;1.63;1.40;;;20.50;43.40;;;24.13;29.29;99790.06;5095821;28;20140;-41
2021/11/26 03:30:45;;;;;;;1.40;1.10;;;20.50;43.30;;;24.12;29.26;99780.34;5096068;28;20209;-39
2021/11/26 03:33:11;;;;;;;1.85;1.30;;;20.50;43.30;;;24.13;29.03;99777.53;5095855;28;20403;-39
2021/11/26 03:35:37;;;;;;;1.92;1.33;;;20.60;43.30;;;24.15;29.17;99786.25;5095802;28;20403;-40
2021/11/26 03:38:03;;;;;;;1.58;1.40;;;20.60;43.30;;;24.15;29.08;99775.56;5095687;28;20048;-39
2021/11/26 03:40:29;;;;;;;1.40;1.30;;;20.60;43.30;;;24.17;29.22;99781.63;5095662;28;20048;-41
2021/11/26 03:42:57;;;;;;;1.27;1.17;;;20.60;43.30;;;24.14;29.29;99779.22;5095679;28;20052;-41
2021/11/26 03:45:30;;;;;;;1.40;1.30;;;20.60;43.30;;;24.13;29.12;99772.19;5095627;28;20106;-39
2021/11/26 03:47:57;;;;;;;1.63;1.02;;;20.60;43.30;;;24.18;29.14;99777.13;5095465;28;20048;-39
2021/11/26 03:50:25;;;;;;;1.10;1.00;;;20.60;43.20;;;24.20;29.35;99775.97;5095858;28;20430;-39
2021/11/26 03:52:51;;;;;;;1.33;1.17;;;20.60;43.20;;;24.20;29.21;99767.97;5095575;28;20044;-39
2021/11/26 03:55:21;;;;;;;1.90;1.30;;;20.60;43.20;;;24.19;28.99;99766.28;5095515;28;20130;-39
2021/11/26 03:57:48;;;;;;;2.40;1.27;;;20.70;43.20;;;24.23;29.05;99769.50;5095245;28;20051;-39
2021/11/26 04:00:16;;;;;;;1.30;1.20;;;20.60;43.10;;;24.20;29.09;99762.63;5096067;28;20403;-39
2021/11/26 04:02:43;;;;;;;1.30;1.20;;;20.70;43.10;;;24.25;29.21;99758.69;5095302;28;20415;-39
2021/11/26 04:05:09;;;;;;;1.60;1.40;;;20.70;43.10;;;24.25;29.31;99758.69;5095146;28;20476;-39
2021/11/26 04:07:36;;;;;;;1.08;0.98;;;20.70;43.10;;;24.28;29.20;99748.56;5095272;28;20522;-40
2021/11/26 04:10:04;;;;;;;1.58;1.02;;;20.70;43.10;;;24.25;29.04;99737.31;5095171;28;20116;-40
2021/11/26 04:12:30;;;;;;;1.58;1.42;;;20.70;43.00;;;24.27;29.25;99740.69;5095180;28;20079;-39
2021/11/26 04:14:56;;;;;;;1.83;1.52;;;20.70;43.00;;;24.29;29.11;99736.91;5095454;28;20480;-40
2021/11/26 04:17:23;;;;;;;0.80;0.80;;;20.70;43.00;;;24.26;29.11;99726.50;5095109;28;20071;-39
2021/11/26 04:19:50;;;;;;;1.25;1.00;;;20.70;43.00;;;24.29;29.00;99718.19;5095003;28;20055;-39
2021/11/26 04:22:15;;;;;;;1.20;1.10;;;20.80;43.00;;;24.29;29.22;99712.84;5095039;28;20109;-39
2021/11/26 04:24:42;;;;;;;1.27;1.17;;;20.80;43.00;;;24.28;29.21;99697.81;5094933;28;20483;-39
2021/11/26 04:27:07;;;;;;;1.45;1.00;;;20.80;43.00;;;24.32;29.11;99706.38;5094936;28;20055;-39
2021/11/26 04:29:33;;;;;;;1.15;1.00;;;20.70;43.00;;;24.30;29.03;99700.34;5094919;28;20040;-39
2021/11/26 04:31:59;;;;;;;1.52;1.25;;;20.80;43.00;;;24.34;28.88;99704.38;5094217;28;20395;-39
2021/11/26 04:34:25;;;;;;;1.40;1.15;;;20.80;43.10;;;24.33;29.07;99689.38;5095310;28;20380;-39
2021/11/26 04:36:51;;;;;;;1.10;1.02;;;20.80;43.00;;;24.35;29.00;99695.41;5094908;28;20044;-39
2021/11/26 04:39:17;;;;;;;1.17;1.00;;;20.70;43.00;;;24.36;28.92;99691.75;5094662;28;20464;-39
2021/11/26 04:41:42;;;;;;;1.10;0.98;;;20.80;43.00;;;24.33;29.15;99679.50;5094775;28;20097;-39
2021/11/26 04:44:08;;;;;;;1.13;1.02;;;20.80;43.00;;;24.36;28.94;99689.91;5094607;28;20096;-39
2021/11/26 04:46:34;;;;;;;1.23;1.00;;;20.80;43.00;;;24.35;28.87;99676.69;5095034;28;20102;-40
2021/11/26 04:49:04;;;;;;;1.60;1.30;;;20.80;43.10;;;24.32;29.12;99669.78;5094603;28;20486;-39
2021/11/26 04:51:30;;;;;;;1.42;1.10;;;20.70;43.00;;;24.37;29.20;99674.72;5094576;28;20048;-39
2021/11/26 04:53:55;;;;;;;0.98;0.90;;;20.70;43.00;;;24.34;28.93;99665.19;5094667;28;20404;-39
2021/11/26 04:56:21;;;;;;;1.30;1.10;;;20.70;43.00;;;24.36;28.97;99665.88;5094488;28;20082;-39
2021/11/26 04:58:47;;;;;;;1.15;1.05;;;20.80;43.00;;;24.34;28.96;99662.50;5094521;28;20051;-39
2021/11/26 05:01:14;;;;;;;1.15;1.10;;;20.70;43.00;;;24.36;29.05;99665.88;5095020;28;20048;-39
2021/11/26 05:03:42;;;;;;;1.23;1.00;;;20.70;43.00;;;24.35;28.78;99656.16;5094467;28;20127;-39
2021/11/26 05:06:08;;;;;;;1.20;1.10;;;20.70;43.00;;;24.34;28.97;99654.50;5094156;28;20040;-40
2021/11/26 05:08:34;;;;;;;1.20;1.10;;;20.80;43.10;;;24.36;28.99;99655.19;5094013;28;20052;-39
2021/11/26 05:11:00;;;;;;;1.10;1.00;;;20.70;43.00;;;24.36;29.10;99655.19;5093981;28;20399;-43
2021/11/26 05:13:29;;;;;;;1.63;1.33;;;20.70;43.00;;;24.36;29.10;99651.69;5093955;28;20056;-40
2021/11/26 05:15:56;;;;;;;1.27;0.90;;;20.70;43.00;;;24.33;28.99;99636.78;5093934;28;20048;-46
2021/11/26 05:18:24;;;;;;;1.92;1.20;;;20.70;43.00;;;24.35;28.91;99640.13;5093859;28;20089;-42
2021/11/26 05:20:51;;;;;;;1.30;1.20;;;20.80;43.10;;;24.37;28.93;99638.19;5094031;28;20484;-42
2021/11/26 05:23:18;;;;;;;1.10;1.00;;;20.80;43.00;;;24.36;28.87;99632.97;5094013;28;20097;-41
2021/11/26 05:25:44;;;;;;;1.20;1.10;;;20.70;43.00;;;24.38;28.91;99636.34;5093783;28;20059;-40
2021/11/26 05:28:10;;;;;;;1.73;1.20;;;20.80;43.00;;;24.36;28.90;99627.63;5093784;28;20044;-42
2021/11/26 05:30:36;;;;;;;2.40;1.38;;;20.80;43.00;;;24.37;28.86;99629.28;5093975;28;20127;-40
2021/11/26 05:33:02;;;;;;;1.05;1.00;;;20.80;43.00;;;24.39;29.05;99622.84;5093967;28;20391;-42
2021/11/26 05:35:28;;;;;;;1.17;0.90;;;20.70;43.00;;;24.36;28.98;99623.13;5093981;28;20048;-39
2021/11/26 05:37:53;;;;;;;1.10;1.00;;;20.80;43.10;;;24.38;28.98;99614.97;5094172;28;20039;-40
2021/11/26 05:40:19;;;;;;;1.17;1.08;;;20.80;43.00;;;24.37;29.02;99613.28;5093792;28;20086;-40
2021/11/26 05:42:46;;;;;;;1.20;1.02;;;20.80;43.00;;;24.39;29.04;99616.63;5092610;28;20052;-39
2021/11/26 05:45:15;;;;;;;1.02;0.93;;;20.80;43.00;;;24.40;28.88;99608.47;5093831;28;20079;-43
2021/11/26 05:47:41;;;;;;;1.33;1.02;;;20.80;43.00;;;24.38;28.93;99599.75;5093468;28;20495;-40
2021/11/26 05:50:10;;;;;;;1.67;1.20;;;20.80;43.00;;;24.41;29.00;99603.97;5093990;28;20892;-41
2021/11/26 05:52:37;;;;;;;1.20;1.10;;;20.80;43.00;;;24.39;28.85;99595.25;5093606;28;20067;-41
2021/11/26 05:55:06;;;;;;;1.13;1.00;;;20.80;43.00;;;24.37;29.08;99582.06;5093879;28;20079;-39
2021/11/26 05:57:32;;;;;;;1.70;1.10;;;20.80;43.00;;;24.41;28.84;99586.13;5093487;28;20040;-39
2021/11/26 05:59:57;;;;;;;0.75;0.70;;;20.80;43.00;;;24.41;28.78;99590.63;5073297;28;20052;-41
2021/11/26 06:02:23;;;;;;;1.60;1.13;;;20.80;43.00;;;24.41;28.92;99583.44;5075249;28;20522;-39
2021/11/26 06:04:49;;;;;;;0.88;0.85;;;20.80;43.00;;;24.40;29.05;99587.09;5093388;28;20040;-41
2021/11/26 06:07:15;;;;;;;1.33;0.90;;;20.80;43.00;;;24.38;28.94;99586.41;5093341;28;20051;-39
2021/11/26 06:09:41;;;;;;;2.05;1.35;;;20.80;43.00;;;24.37;28.95;99582.06;5093284;28;20088;-43
2021/11/26 06:12:09;;;;;;;0.93;0.82;;;20.80;43.00;;;24.39;28.92;99581.91;5093598;28;20134;-41
2021/11/26 06:14:37;;;;;;;1.02;0.93;;;20.80;43.00;;;24.37;28.87;99579.41;5093591;28;20059;-39
2021/11/26 06:17:03;;;;;;;0.88;0.88;;;20.80;43.00;;;24.38;28.79;99573.06;5093293;28;20063;-40
2021/11/26 06:19:29;;;;;;;1.95;1.30;;;20.80;43.00;;;24.38;29.02;99574.88;5092936;28;20044;-39
2021/11/26 06:21:55;;;;;;;1.92;1.20;;;20.80;43.00;;;24.41;28.71;99567.41;5093082;28;20040;-44
2021/11/26 06:24:21;;;;;;;0.93;0.90;;;20.70;42.90;;;24.42;29.03;99574.44;5093088;28;20177;-39
2021/11/26 06:26:47;;;;;;;1.13;1.02;;;20.80;43.00;;;24.40;28.90;99563.03;5093679;28;20048;-39
2021/11/26 06:29:13;;;;;;;1.05;0.95;;;20.80;43.00;;;24.41;28.89;99564.75;5093077;28;20044;-39
2021/11/26 06:31:40;;;;;;;1.15;1.05;;;20.80;43.00;;;24.40;29.00;99563.03;5093038;28;20142;-40
2021/11/26 06:34:06;;;;;;;1.13;0.82;;;20.80;43.00;;;24.41;28.88;99554.06;5093091;28;20044;-39
2021/11/26 06:36:33;;;;;;;1.10;1.00;;;20.80;43.00;;;24.39;28.95;99557.84;5093070;28;20055;-39
2021/11/26 06:39:01;;;;;;;1.55;1.05;;;20.80;43.00;;;24.38;28.84;99557.03;5092819;28;20048;-39
2021/11/26 06:41:26;;;;;;;1.63;1.25;;;20.80;43.00;;;24.41;28.90;99566.59;5093526;28;20051;-39
2021/11/26 06:43:53;;;;;;;1.27;1.08;;;20.80;43.00;;;24.42;29.05;99562.91;5092975;28;20138;-39
2021/11/26 06:46:20;;;;;;;1.27;1.13;;;20.80;43.00;;;24.41;28.90;99555.91;5092740;28;20079;-40
2021/11/26 06:48:47;;;;;;;1.40;1.25;;;20.80;43.00;;;24.42;28.99;99554.88;5092819;28;20044;-40
2021/11/26 06:51:14;;;;;;;1.00;0.93;;;20.80;43.00;;;24.42;28.79;99554.88;5092780;28;20051;-47
2021/11/26 06:53:40;;;;;;;1.55;1.13;;;20.80;42.90;;;24.42;28.89;99549.53;5073208;28;20055;-39
2021/11/26 06:56:06;;;;;;;1.17;1.00;;;20.80;43.00;;;24.41;28.95;99545.22;5092973;28;20484;-40
2021/11/26 06:58:32;;;;;;;0.90;0.90;;;20.80;43.00;;;24.42;28.90;99550.41;5073952;28;20047;-40
2021/11/26 07:00:58;;;;;;;1.15;1.05;;;20.80;43.00;;;24.40;28.91;99543.50;5092578;28;20614;-40
2021/11/26 07:03:24;;;;;;;1.10;1.00;;;20.80;43.00;;;24.40;28.77;99538.16;5092307;28;20079;-43
2021/11/26 07:05:51;;;;;;;1.10;1.00;;;20.80;43.00;;;24.39;28.83;99534.66;5092167;28;20052;-40
2021/11/26 07:08:20;;;;;;;0.90;0.82;;;20.80;43.00;;;24.44;28.99;99544.91;5092191;28;20139;-39
2021/11/26 07:10:46;;;;;;;1.40;1.30;;;20.80;43.00;;;24.42;28.86;99534.38;5092138;28;20052;-41
2021/11/26 07:13:13;;;;;;;1.08;1.00;;;20.80;43.00;;;24.42;29.02;99538.84;5092713;28;20051;-43
2021/11/26 07:15:39;;;;;;;0.80;0.80;;;20.80;43.00;;;24.41;28.81;99534.53;5092415;28;20101;-42
2021/11/26 07:18:05;;;;;;;1.23;1.10;;;20.80;43.00;;;24.39;28.97;99529.31;5092400;28;20041;-42
2021/11/26 07:20:31;;;;;;;0.80;0.80;;;20.80;43.00;;;24.42;28.72;99523.69;5092079;28;20052;-39
2021/11/26 07:22:59;;;;;;;0.93;0.80;;;20.80;43.00;;;24.40;28.93;99528.31;5074071;28;20132;-40
2021/11/26 07:25:26;;;;;;;1.75;1.20;;;20.80;43.00;;;24.41;28.81;99518.50;5092422;28;20054;-39
2021/11/26 07:27:53;;;;;;;1.58;1.13;;;20.80;43.00;;;24.40;28.81;99517.63;5092215;28;20086;-40
2021/11/26 07:30:19;;;;;;;2.05;0.90;;;20.80;43.00;;;24.42;28.76;99509.47;5092073;28;20044;-41
2021/11/26 07:32:45;;;;;;;1.38;1.00;;;20.80;42.90;;;24.42;29.00;99510.34;5073954;28;20093;-39
2021/11/26 07:35:13;;;;;;;1.00;0.90;;;20.80;42.90;;;24.42;29.05;99510.34;5092128;28;20048;-42
2021/11/26 07:37:40;;;;;;;1.00;0.98;;;20.80;43.00;;;24.40;28.95;99506.94;5092193;28;20441;-41
2021/11/26 07:40:10;;;;;;;1.10;1.00;;;20.80;42.90;;;24.41;28.82;99507.81;5091983;28;20368;-40
2021/11/26 07:42:36;;;;;;;1.25;1.00;;;20.80;43.00;;;24.40;28.93;99498.94;5092148;28;20479;-39
2021/11/26 07:45:03;;;;;;;1.10;1.00;;;20.80;42.90;;;24.44;28.80;99501.31;5073715;28;20055;-39
2021/11/26 07:47:29;;;;;;;2.03;1.13;;;20.80;42.90;;;24.44;28.99;99495.97;5092081;28;20056;-39
2021/11/26 07:49:55;;;;;;;1.20;0.90;;;20.80;43.00;;;24.44;28.62;99494.16;5091905;28;20052;-40
2021/11/26 07:52:22;;;;;;;1.20;1.00;;;20.80;43.00;;;24.46;28.88;99493.97;5091256;28;20480;-40
2021/11/26 07:54:48;;;;;;;0.70;0.68;;;20.80;43.00;;;24.45;28.85;99494.97;5091958;28;20054;-40
2021/11/26 07:57:14;;;;;;;1.00;0.90;;;20.80;42.90;;;24.43;28.75;99484.44;5091940;28;20127;-42
2021/11/26 07:59:40;;;;;;;1.17;0.98;;;20.80;43.00;;;24.46;28.89;99492.16;5091665;28;20044;-40
2021/11/26 08:02:06;;;;;;;1.08;0.98;;;20.80;42.90;;;24.43;29.08;99473.75;5092171;28;20055;-40
2021/11/26 08:04:32;;;;;;;1.40;0.90;;;20.80;42.90;;;24.42;28.73;99470.25;5092102;28;20055;-43
2021/11/26 08:06:58;;;;;;;1.10;1.00;;;20.80;43.00;;;24.45;28.89;99477.09;5094236;28;20078;-40
2021/11/26 08:09:25;;;;;;;0.98;0.90;;;20.80;43.00;;;24.45;28.98;99469.09;5095015;28;20048;-42
2021/11/26 08:11:53;;;;;;;1.13;0.90;;;20.80;43.00;;;24.43;28.70;99465.75;5095164;28;20075;-41
2021/11/26 08:14:19;;;;;;;1.73;0.80;;;20.80;42.90;;;24.41;28.90;99457.03;5095030;28;20511;-42
2021/11/26 08:16:48;;;;;;;0.80;0.80;;;20.80;42.90;;;24.43;28.94;99455.06;5094954;28;20395;-41
2021/11/26 08:19:15;;;;;;;0.88;0.80;;;20.80;42.90;;;24.48;28.78;99465.28;5094718;28;20079;-45
2021/11/26 08:21:41;;;;;;;1.35;1.00;;;20.80;42.90;;;24.46;28.73;99451.22;5095102;28;20128;-40
2021/11/26 08:24:09;;;;;;;0.98;0.90;;;20.80;42.90;;;24.46;29.03;99452.09;5094957;28;20131;-40
2021/11/26 08:26:36;;;;;;;1.00;0.90;;;20.80;42.90;;;24.46;28.93;99440.53;5095166;28;20071;-40
2021/11/26 08:29:03;;;;;;;0.93;0.90;;;20.80;42.90;;;24.46;28.88;99437.88;5094734;28;20139;-40
2021/11/26 08:31:29;;;;;;;1.17;1.00;;;20.80;42.90;;;24.46;28.74;99445.88;5094860;28;20097;-40
2021/11/26 08:33:56;;;;;;;1.15;0.90;;;20.80;42.90;;;24.42;28.78;99438.19;5094715;28;20048;-40
2021/11/26 08:36:23;;;;;;;0.90;0.85;;;20.80;42.90;;;24.46;28.76;99441.41;5094603;28;20044;-42
2021/11/26 08:38:50;;;;;;;1.05;1.02;;;20.80;42.90;;;24.46;28.71;99444.06;5094765;28;20105;-40
2021/11/26 08:41:16;;;;;;;1.48;1.02;;;20.80;42.90;;;24.47;28.72;99437.72;5094714;28;20052;-41
2021/11/26 08:43:44;;;;;;;1.17;1.08;;;20.80;42.90;;;24.46;28.90;99437.88;5094630;28;20416;-41
2021/11/26 08:46:10;;;;;;;1.05;0.77;;;20.90;42.90;;;24.49;28.76;99434.88;5094924;28;20541;-42
2021/11/26 08:48:36;;;;;;;1.00;0.90;;;20.80;42.90;;;24.46;28.87;99424.50;5094727;28;21433;-40
2021/11/26 08:51:02;;;;;;;1.58;1.10;;;20.90;42.90;;;24.48;28.83;99427.88;5094324;28;20101;-40
2021/11/26 08:53:29;;;;;;;0.93;0.90;;;20.80;43.00;;;24.49;29.01;99427.75;5094447;28;20134;-40
2021/11/26 08:55:55;;;;;;;1.20;1.10;;;20.80;42.90;;;24.46;28.87;99422.69;5094261;28;20048;-39
2021/11/26 08:58:24;;;;;;;1.20;1.10;;;20.80;42.80;;;24.45;28.84;99417.50;5094171;28;20051;-40
2021/11/26 09:00:50;;;;;;;1.13;0.90;;;20.80;42.90;;;24.45;28.81;99421.00;5094276;28;20491;-41
2021/11/26 09:03:16;;;;;;;0.90;0.80;;;20.80;42.90;;;24.44;28.79;99411.31;5094258;28;20055;-40
2021/11/26 09:05:43;;;;;;;1.42;0.90;;;20.80;42.90;;;24.46;28.84;99414.69;5094393;28;20497;-40
2021/11/26 09:08:16;;;;;;;1.35;1.20;;;20.80;42.90;;;24.47;28.79;99411.00;5075218;28;20053;-42
2021/11/26 09:10:46;;;;;;;0.80;0.80;;;20.80;42.90;;;24.45;28.77;99404.97;5094623;28;20040;-40
2021/11/26 09:13:14;;;;;;;1.25;0.90;;;20.90;42.90;;;24.47;28.82;99399.47;5094187;28;20510;-40
2021/11/26 09:15:41;;;;;;;0.98;0.98;;;20.90;42.90;;;24.47;28.83;99396.81;5093839;28;20090;-39
2021/11/26 09:18:09;;;;;;;0.82;0.80;;;20.90;42.90;;;24.48;28.82;99396.66;5093900;28;20060;-40
2021/11/26 09:20:37;;;;;;;1.17;1.05;;;20.90;42.90;;;24.47;28.72;99383.44;5094164;28;20127;-40
2021/11/26 09:23:07;;;;;;;1.30;1.20;;;20.90;42.90;;;24.48;28.93;99391.31;5094091;28;20066;-40
2021/11/26 09:25:33;;;;;;;1.98;0.93;;;20.90;42.80;;;24.52;28.86;99386.50;5094080;28;20535;-39
2021/11/26 09:28:00;;;;;;;1.98;1.05;;;20.90;42.80;;;24.48;28.83;99385.13;5093737;28;20067;-40
2021/11/26 09:30:28;;;;;;;0.85;0.85;;;20.90;43.30;;;24.47;28.98;99376.25;5093991;28;20407;-40
2021/11/26 09:32:55;;;;;;;1.35;1.08;;;20.90;42.80;;;24.49;28.78;99382.31;5093744;28;20076;-40
2021/11/26 09:35:21;;;;;;;0.88;0.77;;;20.90;42.80;;;24.50;28.86;99373.28;5093841;28;20047;-40
2021/11/26 09:37:48;;;;;;;1.40;0.98;;;20.90;42.80;;;24.48;28.59;99367.25;5093755;28;20477;-42
2021/11/26 09:40:16;;;;;;;1.45;1.05;;;20.90;42.80;;;24.48;28.88;99363.75;5093847;28;20059;-45
2021/11/26 09:42:43;;;;;;;1.15;1.05;;;20.80;42.70;;;24.47;28.82;99354.88;5093618;28;20395;-39
2021/11/26 09:45:16;;;;;;;0.90;0.90;;;20.90;42.80;;;24.51;28.75;99358.13;5093630;28;20047;-41
2021/11/26 09:47:41;;;;;;;1.00;1.00;;;20.90;42.70;;;24.53;28.73;99356.13;5093591;28;20052;-40
2021/11/26 09:50:08;;;;;;;0.82;0.80;;;20.90;42.70;;;24.48;28.74;99348.56;5093610;28;20487;-40
2021/11/26 09:52:40;;;;;;;1.15;1.05;;;20.90;42.70;;;24.52;28.88;99347.25;5093556;28;20181;-40
2021/11/26 09:55:09;;;;;;;1.65;1.08;;;20.90;42.70;;;24.54;28.89;99357.78;5093834;28;20079;-41
2021/11/26 09:57:36;;;;;;;0.93;0.80;;;20.90;42.70;;;24.52;28.78;99341.06;5093486;28;20411;-40
2021/11/26 10:00:05;;;;;;;2.30;0.90;;;20.90;42.70;;;24.53;28.92;99340.91;5075161;28;20079;-42
2021/11/26 10:02:32;;;;;;;1.07;0.97;;;20.90;42.60;;;24.53;28.74;99330.22;5093160;28;20044;-40
2021/11/26 10:05:07;;;;;;;1.40;1.10;;;20.90;42.60;;;24.54;28.72;99337.25;5093493;28;20093;-39
2021/11/26 10:07:54;;;;;;;1.17;1.08;;;20.90;42.60;;;24.55;28.91;99332.78;5075383;28;20047;-40
2021/11/26 10:10:26;;;;;;;1.13;1.00;;;21.00;42.60;;;24.52;28.77;99331.22;5093082;28;20415;-43
2021/11/26 10:13:01;;;;;;;2.35;1.58;;;21.00;42.60;;;24.51;28.86;99318.88;5093524;28;20051;-41
2021/11/26 10:15:47;;;;;;;1.10;1.02;;;20.90;42.60;;;24.53;28.73;99313.38;5093231;28;20048;-42
2021/11/26 10:18:22;;;;;;;1.17;0.93;;;21.00;42.60;;;24.55;28.82;99298.03;5092904;28;20077;-40
2021/11/26 10:21:02;;;;;;;1.30;0.85;;;21.00;42.60;;;24.57;28.77;99302.25;5092861;28;20451;-41